createdAt,value
2019-02-19T00:00:35.842Z,100960.62
2019-02-19T00:03:05.569Z,100962.58
2019-02-19T00:05:35.061Z,100963.89
2019-02-19T00:08:04.622Z,100965.17
2019-02-19T00:10:34.115Z,100966.13
2019-02-19T00:13:03.658Z,100968.52
2019-02-19T00:15:33.182Z,100966.81
2019-02-19T00:18:02.665Z,100966.72
2019-02-19T00:20:32.228Z,100960.96
2019-02-19T00:23:01.726Z,100966.23
2019-02-19T00:25:31.280Z,100966.95
2019-02-19T00:28:00.803Z,100963.70
2019-02-19T00:30:30.293Z,100956.45
2019-02-19T00:32:59.770Z,100957.47
2019-02-19T00:35:29.311Z,100953.64
2019-02-19T00:37:58.797Z,100960.25
2019-02-19T00:40:28.356Z,100958.75
2019-02-19T00:42:57.887Z,100962.77
2019-02-19T00:45:27.369Z,100961.72
2019-02-19T00:47:56.862Z,100961.30
2019-02-19T00:50:26.385Z,100958.80
2019-02-19T00:52:55.865Z,100956.56
2019-02-19T00:55:25.351Z,100953.61
2019-02-19T00:57:56.229Z,100953.20
2019-02-19T01:00:25.736Z,100958.16
2019-02-19T01:02:55.205Z,100957.83
2019-02-19T01:05:24.826Z,100960.80
2019-02-19T01:07:54.492Z,100959.21
2019-02-19T01:10:24.017Z,100964.46
2019-02-19T01:12:53.559Z,100965.97
2019-02-19T01:15:25.453Z,100969.95
2019-02-19T01:17:54.256Z,100968.07
2019-02-19T01:20:23.822Z,100962.77
2019-02-19T01:22:53.318Z,100963.56
2019-02-19T01:25:22.810Z,100968.73
2019-02-19T01:27:52.289Z,100977.11
2019-02-19T01:30:21.759Z,100984.44
2019-02-19T01:32:51.243Z,100983.61
2019-02-19T01:35:20.711Z,100985.25
2019-02-19T01:37:50.251Z,100985.14
2019-02-19T01:40:19.732Z,100989.42
2019-02-19T01:42:49.217Z,100985.19
2019-02-19T01:45:18.723Z,100990.06
2019-02-19T01:47:48.208Z,100993.59
2019-02-19T01:50:17.739Z,100989.81
2019-02-19T01:52:47.211Z,100995.43
2019-02-19T01:55:16.695Z,100997.71
2019-02-19T01:57:46.314Z,100990.84
2019-02-19T02:00:15.872Z,100999.39
2019-02-19T02:02:45.359Z,100993.94
2019-02-19T02:05:14.832Z,100999.56
2019-02-19T02:07:44.434Z,100994.39
2019-02-19T02:10:13.916Z,100996.48
2019-02-19T02:12:43.389Z,101000.16
2019-02-19T02:15:12.897Z,100993.85
2019-02-19T02:17:42.374Z,100981.93
2019-02-19T02:20:11.867Z,100986.22
2019-02-19T02:22:41.367Z,100985.30
2019-02-19T02:25:10.981Z,100986.47
2019-02-19T02:27:40.553Z,100981.63
2019-02-19T02:30:10.274Z,100984.44
2019-02-19T02:32:39.748Z,100977.95
2019-02-19T02:35:11.294Z,100983.48
2019-02-19T02:37:40.485Z,100986.59
2019-02-19T02:40:10.062Z,100983.42
2019-02-19T02:42:39.539Z,100993.64
2019-02-19T02:45:09.164Z,100998.39
2019-02-19T02:47:38.651Z,100996.94
2019-02-19T02:50:08.218Z,101002.05
2019-02-19T02:52:37.788Z,100996.94
2019-02-19T02:55:07.270Z,101006.23
2019-02-19T02:57:36.807Z,100999.87
2019-02-19T03:00:09.337Z,101000.25
2019-02-19T03:02:58.147Z,101010.45
2019-02-19T03:05:27.619Z,101011.88
2019-02-19T03:07:58.735Z,101009.71
2019-02-19T03:10:28.309Z,101015.94
2019-02-19T03:12:57.905Z,101012.12
2019-02-19T03:15:27.391Z,101015.11
2019-02-19T03:17:56.883Z,101020.71
2019-02-19T03:20:26.360Z,101016.50
2019-02-19T03:22:55.886Z,101019.47
2019-02-19T03:25:25.366Z,101015.81
2019-02-19T03:27:54.866Z,101016.35
2019-02-19T03:30:24.369Z,101014.09
2019-02-19T03:32:54.043Z,101020.24
2019-02-19T03:35:23.536Z,101018.33
2019-02-19T03:37:53.025Z,101022.09
2019-02-19T03:40:22.537Z,101026.58
2019-02-19T03:42:52.089Z,101025.84
2019-02-19T03:45:21.614Z,101028.58
2019-02-19T03:47:51.120Z,101031.89
2019-02-19T03:50:20.634Z,101033.81
2019-02-19T03:52:50.145Z,101033.02
2019-02-19T03:55:19.630Z,101031.45
2019-02-19T03:57:49.117Z,101039.22
2019-02-19T04:00:18.714Z,101042.39
2019-02-19T04:02:48.230Z,101053.50
2019-02-19T04:05:17.894Z,101047.72
2019-02-19T04:07:47.375Z,101052.77
2019-02-19T04:10:16.873Z,101053.43
2019-02-19T04:12:46.328Z,101056.94
2019-02-19T04:15:15.988Z,101056.99
2019-02-19T04:17:45.542Z,101056.80
2019-02-19T04:20:15.025Z,101062.44
2019-02-19T04:22:44.572Z,101065.18
2019-02-19T04:25:14.069Z,101063.34
2019-02-19T04:27:43.559Z,101062.44
2019-02-19T04:30:13.150Z,101064.48
2019-02-19T04:32:42.643Z,101067.86
2019-02-19T04:35:12.184Z,101066.43
2019-02-19T04:37:41.752Z,101069.89
2019-02-19T04:40:11.328Z,101065.66
2019-02-19T04:42:40.804Z,101066.53
2019-02-19T04:45:10.421Z,101073.19
2019-02-19T04:47:40.007Z,101071.89
2019-02-19T04:50:10.254Z,101064.96
2019-02-19T04:52:39.745Z,101061.06
2019-02-19T04:55:09.669Z,101066.83
2019-02-19T04:57:39.312Z,101058.92
2019-02-19T05:00:32.852Z,101061.08
2019-02-19T05:03:02.411Z,101053.80
2019-02-19T05:05:31.896Z,101061.73
2019-02-19T05:08:01.403Z,101053.80
2019-02-19T05:10:31.015Z,101044.44
2019-02-19T05:13:00.522Z,101047.66
2019-02-19T05:15:30.963Z,101053.34
2019-02-19T05:18:00.452Z,101060.82
2019-02-19T05:20:30.007Z,101058.52
2019-02-19T05:22:59.490Z,101060.16
2019-02-19T05:25:28.985Z,101066.63
2019-02-19T05:27:58.487Z,101066.75
2019-02-19T05:30:27.990Z,101067.94
2019-02-19T05:32:57.602Z,101069.34
2019-02-19T05:35:27.117Z,101072.88
2019-02-19T05:37:56.625Z,101073.02
2019-02-19T05:40:26.106Z,101073.89
2019-02-19T05:42:55.627Z,101082.27
2019-02-19T05:45:25.172Z,101084.02
2019-02-19T05:47:54.695Z,101088.53
2019-02-19T05:50:24.299Z,101095.63
2019-02-19T05:52:53.805Z,101101.81
2019-02-19T05:55:23.382Z,101100.06
2019-02-19T05:57:52.882Z,101107.98
2019-02-19T06:00:22.376Z,101103.66
2019-02-19T06:02:51.860Z,101108.52
2019-02-19T06:05:21.420Z,101104.87
2019-02-19T06:07:50.872Z,101112.52
2019-02-19T06:10:20.386Z,101105.09
2019-02-19T06:12:49.869Z,101114.67
2019-02-19T06:15:19.353Z,101104.91
2019-02-19T06:17:48.892Z,101105.58
2019-02-19T06:20:18.422Z,101106.31
2019-02-19T06:22:47.909Z,101112.88
2019-02-19T06:25:17.409Z,101116.72
2019-02-19T06:27:46.898Z,101127.77
2019-02-19T06:30:16.389Z,101127.28
2019-02-19T06:32:45.965Z,101135.97
2019-02-19T06:35:15.627Z,101140.76
2019-02-19T06:37:45.096Z,101139.25
2019-02-19T06:40:29.734Z,101144.22
2019-02-19T06:42:59.211Z,101142.55
2019-02-19T06:45:28.686Z,101154.12
2019-02-19T06:47:58.174Z,101144.69
2019-02-19T06:50:27.759Z,101152.95
2019-02-19T06:52:57.254Z,101159.74
2019-02-19T06:55:26.743Z,101161.09
2019-02-19T06:57:56.293Z,101170.75
2019-02-19T07:00:25.786Z,101170.95
2019-02-19T07:03:13.488Z,101174.62
2019-02-19T07:05:43.015Z,101181.31
2019-02-19T07:08:12.508Z,101178.38
2019-02-19T07:10:42.025Z,101177.72
2019-02-19T07:13:11.505Z,101178.97
2019-02-19T07:15:41.030Z,101194.08
2019-02-19T07:18:10.588Z,101199.39
2019-02-19T07:20:40.115Z,101205.05
2019-02-19T07:23:09.603Z,101201.17
2019-02-19T07:25:39.156Z,101208.14
2019-02-19T07:28:08.659Z,101214.05
2019-02-19T07:30:38.144Z,101206.48
2019-02-19T07:33:07.649Z,101206.10
2019-02-19T07:35:37.140Z,101212.11
2019-02-19T07:38:06.695Z,101218.59
2019-02-19T07:40:36.259Z,101216.17
2019-02-19T07:43:05.823Z,101217.16
2019-02-19T07:45:35.312Z,101218.84
2019-02-19T07:48:04.923Z,101226.55
2019-02-19T07:50:34.491Z,101233.17
2019-02-19T07:53:04.045Z,101237.66
2019-02-19T07:55:33.550Z,101234.97
2019-02-19T07:58:03.131Z,101228.62
2019-02-19T08:00:32.697Z,101233.95
2019-02-19T08:03:02.175Z,101240.94
2019-02-19T08:05:31.682Z,101243.86
2019-02-19T08:08:01.174Z,101249.48
2019-02-19T08:10:30.679Z,101254.86
2019-02-19T08:13:00.263Z,101252.79
2019-02-19T08:15:29.816Z,101259.53
2019-02-19T08:17:59.308Z,101258.46
2019-02-19T08:20:28.799Z,101258.83
2019-02-19T08:22:58.283Z,101265.22
2019-02-19T08:25:27.952Z,101267.14
2019-02-19T08:27:57.457Z,101277.51
2019-02-19T08:30:26.958Z,101271.02
2019-02-19T08:32:56.542Z,101278.29
2019-02-19T08:35:26.040Z,101278.66
2019-02-19T08:37:55.525Z,101279.06
2019-02-19T08:40:25.101Z,101291.16
2019-02-19T08:42:54.581Z,101288.28
2019-02-19T08:45:24.162Z,101290.98
2019-02-19T08:47:53.665Z,101294.95
2019-02-19T08:50:23.203Z,101293.73
2019-02-19T08:52:52.785Z,101286.43
2019-02-19T08:55:22.275Z,101295.73
2019-02-19T08:57:51.768Z,101295.93
2019-02-19T09:00:21.342Z,101295.75
2019-02-19T09:02:50.843Z,101305.33
2019-02-19T09:05:20.354Z,101309.84
2019-02-19T09:07:49.868Z,101304.99
2019-02-19T09:10:19.377Z,101306.77
2019-02-19T09:12:48.858Z,101311.42
2019-02-19T09:15:18.337Z,101306.26
2019-02-19T09:17:51.927Z,101310.78
2019-02-19T09:20:19.149Z,101315.08
2019-02-19T09:22:48.635Z,101317.36
2019-02-19T09:25:18.121Z,101310.28
2019-02-19T09:27:47.604Z,101311.30
2019-02-19T09:30:17.113Z,101316.16
2019-02-19T09:32:46.601Z,101315.57
2019-02-19T09:35:16.103Z,101315.02
2019-02-19T09:37:45.682Z,101312.67
2019-02-19T09:40:15.364Z,101315.14
2019-02-19T09:42:44.899Z,101315.19
2019-02-19T09:45:14.437Z,101313.00
2019-02-19T09:47:43.938Z,101309.42
2019-02-19T09:50:13.413Z,101310.92
2019-02-19T09:52:42.900Z,101311.59
2019-02-19T09:55:12.542Z,101320.05
2019-02-19T09:57:42.119Z,101308.63
2019-02-19T10:00:14.498Z,101311.50
2019-02-19T10:02:44.145Z,101312.82
2019-02-19T10:05:13.741Z,101313.12
2019-02-19T10:07:43.232Z,101312.06
2019-02-19T10:10:23.678Z,101322.55
2019-02-19T10:12:53.170Z,101317.30
2019-02-19T10:15:22.708Z,101322.88
2019-02-19T10:17:52.198Z,101324.83
2019-02-19T10:20:21.703Z,101317.35
2019-02-19T10:22:51.188Z,101323.23
2019-02-19T10:25:20.671Z,101323.81
2019-02-19T10:27:50.185Z,101318.69
2019-02-19T10:30:21.005Z,101318.80
2019-02-19T10:32:50.500Z,101317.83
2019-02-19T10:35:20.118Z,101314.97
2019-02-19T10:37:49.628Z,101321.76
2019-02-19T10:40:21.227Z,101320.84
2019-02-19T10:42:50.715Z,101321.70
2019-02-19T10:45:27.640Z,101328.14
2019-02-19T10:47:57.144Z,101323.03
2019-02-19T10:50:26.659Z,101328.39
2019-02-19T10:52:56.141Z,101322.56
2019-02-19T10:55:25.611Z,101321.39
2019-02-19T10:57:55.106Z,101321.91
2019-02-19T11:00:25.011Z,101316.78
2019-02-19T11:02:54.499Z,101322.08
2019-02-19T11:05:23.977Z,101315.40
2019-02-19T11:07:53.484Z,101320.78
2019-02-19T11:10:23.019Z,101311.04
2019-02-19T11:12:52.528Z,101315.02
2019-02-19T11:15:22.014Z,101313.36
2019-02-19T11:17:51.505Z,101311.55
2019-02-19T11:20:22.809Z,101319.91
2019-02-19T11:22:52.300Z,101306.34
2019-02-19T11:25:21.783Z,101300.64
2019-02-19T11:27:51.334Z,101313.73
2019-02-19T11:30:21.318Z,101303.23
2019-02-19T11:32:50.805Z,101301.23
2019-02-19T11:35:20.292Z,101310.62
2019-02-19T11:37:49.856Z,101300.78
2019-02-19T11:40:19.350Z,101310.83
2019-02-19T11:42:48.842Z,101302.98
2019-02-19T11:45:20.310Z,101305.82
2019-02-19T11:47:49.794Z,101300.81
2019-02-19T11:50:19.303Z,101303.50
2019-02-19T11:52:48.797Z,101304.10
2019-02-19T11:55:20.006Z,101297.66
2019-02-19T11:57:49.515Z,101300.33
2019-02-19T12:00:29.615Z,101302.61
2019-02-19T12:02:59.097Z,101304.37
2019-02-19T12:05:28.612Z,101308.32
2019-02-19T12:07:58.194Z,101300.28
2019-02-19T12:10:27.699Z,101311.82
2019-02-19T12:12:57.243Z,101312.86
2019-02-19T12:15:34.938Z,101311.97
2019-02-19T12:17:58.180Z,101310.34
2019-02-19T12:20:27.655Z,101299.42
2019-02-19T12:22:57.164Z,101303.72
2019-02-19T12:25:26.673Z,101304.69
2019-02-19T12:27:56.196Z,101312.09
2019-02-19T12:30:25.754Z,101308.35
2019-02-19T12:32:55.258Z,101306.69
2019-02-19T12:35:24.781Z,101311.16
2019-02-19T12:37:54.355Z,101312.97
2019-02-19T12:40:23.846Z,101317.83
2019-02-19T12:42:53.447Z,101312.88
2019-02-19T12:45:23.027Z,101309.29
2019-02-19T12:47:52.522Z,101300.20
2019-02-19T12:50:22.034Z,101302.94
2019-02-19T12:52:51.536Z,101305.84
2019-02-19T12:55:21.807Z,101306.19
2019-02-19T12:57:51.307Z,101323.09
2019-02-19T13:00:21.130Z,101314.48
2019-02-19T13:02:50.683Z,101307.97
2019-02-19T13:05:20.200Z,101306.14
2019-02-19T13:07:49.711Z,101304.00
2019-02-19T13:10:19.209Z,101307.09
2019-02-19T13:12:49.628Z,101309.52
2019-02-19T13:15:21.836Z,101299.52
2019-02-19T13:17:51.355Z,101310.50
2019-02-19T13:20:20.958Z,101305.72
2019-02-19T13:22:50.489Z,101310.12
2019-02-19T13:25:19.973Z,101305.61
2019-02-19T13:27:49.519Z,101306.20
2019-02-19T13:30:22.693Z,101307.02
2019-02-19T13:32:52.184Z,101321.34
2019-02-19T13:35:21.825Z,101315.63
2019-02-19T13:37:51.387Z,101319.84
2019-02-19T13:40:21.499Z,101318.48
2019-02-19T13:42:51.046Z,101318.26
2019-02-19T13:45:20.632Z,101309.13
2019-02-19T13:47:50.142Z,101305.31
2019-02-19T13:50:24.555Z,101308.88
2019-02-19T13:52:55.693Z,101317.30
2019-02-19T13:55:26.909Z,101319.20
2019-02-19T13:57:57.444Z,101311.95
2019-02-19T14:00:28.805Z,101319.05
2019-02-19T14:02:58.300Z,101323.75
2019-02-19T14:05:27.856Z,101320.64
2019-02-19T14:07:57.335Z,101317.19
2019-02-19T14:10:26.859Z,101322.36
2019-02-19T14:12:56.375Z,101317.95
2019-02-19T14:15:44.174Z,101316.38
2019-02-19T14:18:15.308Z,101310.55
2019-02-19T14:20:48.865Z,101319.97
2019-02-19T14:23:36.119Z,101316.88
2019-02-19T14:26:23.421Z,101319.39
2019-02-19T14:29:07.808Z,101322.39
2019-02-19T14:31:44.814Z,101327.91
2019-02-19T14:34:26.030Z,101328.28
2019-02-19T14:36:59.990Z,101318.02
2019-02-19T14:39:31.183Z,101313.43
2019-02-19T14:42:06.398Z,101318.31
2019-02-19T14:44:49.525Z,101308.10
2019-02-19T14:47:29.721Z,101325.48
2019-02-19T14:50:16.936Z,101326.19
2019-02-19T14:52:50.491Z,101330.07
2019-02-19T14:55:30.861Z,101324.33
2019-02-19T14:58:02.926Z,101329.05
2019-02-19T15:00:37.022Z,101324.06
2019-02-19T15:03:08.184Z,101322.45
2019-02-19T15:05:40.132Z,101324.49
2019-02-19T15:08:14.255Z,101320.73
2019-02-19T15:10:57.612Z,101323.37
2019-02-19T15:13:31.696Z,101317.07
2019-02-19T15:16:02.847Z,101310.82
2019-02-19T15:18:34.863Z,101323.00
2019-02-19T15:21:17.872Z,101336.57
2019-02-19T15:24:05.144Z,101325.30
2019-02-19T15:26:41.993Z,101325.19
2019-02-19T15:29:15.569Z,101324.67
2019-02-19T15:31:46.726Z,101322.13
2019-02-19T15:34:20.672Z,101325.59
2019-02-19T15:37:08.206Z,101327.28
2019-02-19T15:39:55.412Z,101326.73
2019-02-19T15:42:36.402Z,101326.22
2019-02-19T15:45:10.244Z,101333.83
2019-02-19T15:47:57.693Z,101325.85
2019-02-19T15:50:44.937Z,101335.13
2019-02-19T15:53:14.215Z,101335.40
2019-02-19T15:56:01.327Z,101334.91
2019-02-19T15:58:38.081Z,101333.23
2019-02-19T16:01:25.526Z,101332.27
2019-02-19T16:03:59.454Z,101333.64
2019-02-19T16:06:30.590Z,101338.30
2019-02-19T16:09:07.243Z,101338.62
2019-02-19T16:11:53.663Z,101339.34
2019-02-19T16:14:24.823Z,101335.93
2019-02-19T16:16:56.507Z,101334.03
2019-02-19T16:19:33.400Z,101337.55
2019-02-19T16:22:10.284Z,101345.79
2019-02-19T16:24:41.428Z,101344.16
2019-02-19T16:27:12.645Z,101348.72
2019-02-19T16:29:55.780Z,101342.64
2019-02-19T16:32:33.124Z,101348.09
2019-02-19T16:35:09.096Z,101351.98
2019-02-19T16:37:51.804Z,101352.06
2019-02-19T16:40:39.116Z,101350.54
2019-02-19T16:43:10.307Z,101350.23
2019-02-19T16:45:41.549Z,101354.09
2019-02-19T16:48:28.043Z,101355.75
2019-02-19T16:51:04.767Z,101354.25
2019-02-19T16:53:53.605Z,101362.86
2019-02-19T16:56:41.086Z,101359.81
2019-02-19T16:59:24.125Z,101359.92
2019-02-19T17:02:00.805Z,101363.88
2019-02-19T17:04:34.392Z,101366.77
2019-02-19T17:07:11.112Z,101360.66
2019-02-19T17:09:54.498Z,101361.56
2019-02-19T17:12:41.776Z,101361.75
2019-02-19T17:15:30.123Z,101355.69
2019-02-19T17:18:05.727Z,101357.38
2019-02-19T17:20:36.878Z,101364.80
2019-02-19T17:23:08.077Z,101363.58
2019-02-19T17:25:41.957Z,101373.57
2019-02-19T17:28:18.832Z,101378.06
2019-02-19T17:30:52.728Z,101377.56
2019-02-19T17:33:23.927Z,101377.75
2019-02-19T17:35:59.521Z,101386.91
2019-02-19T17:38:33.072Z,101384.72
2019-02-19T17:41:04.252Z,101390.61
2019-02-19T17:43:35.402Z,101387.08
2019-02-19T17:46:06.638Z,101393.42
2019-02-19T17:48:40.536Z,101399.89
2019-02-19T17:51:09.908Z,101399.66
2019-02-19T17:53:50.116Z,101392.27
2019-02-19T17:56:34.403Z,101396.48
2019-02-19T17:59:05.552Z,101399.90
2019-02-19T18:01:42.461Z,101402.36
2019-02-19T18:04:19.334Z,101404.77
2019-02-19T18:06:48.591Z,101410.63
2019-02-19T18:09:28.893Z,101409.50
2019-02-19T18:12:00.049Z,101410.84
2019-02-19T18:14:46.166Z,101415.80
2019-02-19T18:17:19.837Z,101416.01
2019-02-19T18:19:49.599Z,101417.63
2019-02-19T18:22:19.253Z,101418.72
2019-02-19T18:24:48.896Z,101421.71
2019-02-19T18:27:18.379Z,101425.38
2019-02-19T18:29:47.861Z,101433.31
2019-02-19T18:32:17.410Z,101430.91
2019-02-19T18:34:46.932Z,101432.98
2019-02-19T18:37:16.429Z,101430.16
2019-02-19T18:39:45.901Z,101434.31
2019-02-19T18:42:15.406Z,101434.78
2019-02-19T18:44:44.892Z,101427.28
2019-02-19T18:47:14.452Z,101430.03
2019-02-19T18:49:43.957Z,101438.95
2019-02-19T18:52:13.505Z,101432.03
2019-02-19T18:54:43.022Z,101429.62
2019-02-19T18:57:12.484Z,101427.28
2019-02-19T18:59:42.019Z,101419.99
2019-02-19T19:02:11.510Z,101431.62
2019-02-19T19:04:41.016Z,101431.03
2019-02-19T19:07:10.600Z,101433.73
2019-02-19T19:09:40.092Z,101433.86
2019-02-19T19:12:09.586Z,101431.02
2019-02-19T19:14:39.055Z,101429.94
2019-02-19T19:17:08.573Z,101437.36
2019-02-19T19:19:38.114Z,101433.66
2019-02-19T19:22:07.602Z,101441.95
2019-02-19T19:24:37.159Z,101435.42
2019-02-19T19:27:06.745Z,101439.17
2019-02-19T19:29:36.254Z,101437.45
2019-02-19T19:32:05.844Z,101442.91
2019-02-19T19:34:35.364Z,101446.73
2019-02-19T19:37:04.930Z,101440.41
2019-02-19T19:39:34.435Z,101443.27
2019-02-19T19:42:03.992Z,101439.62
2019-02-19T19:44:33.557Z,101436.75
2019-02-19T19:47:03.219Z,101436.80
2019-02-19T19:49:32.721Z,101445.98
2019-02-19T19:52:02.283Z,101446.30
2019-02-19T19:54:31.791Z,101443.85
2019-02-19T19:57:01.303Z,101445.83
2019-02-19T19:59:30.811Z,101448.08
2019-02-19T20:02:00.296Z,101445.14
2019-02-19T20:04:29.809Z,101449.34
2019-02-19T20:06:59.334Z,101454.09
2019-02-19T20:09:28.807Z,101453.48
2019-02-19T20:11:58.318Z,101454.03
2019-02-19T20:14:27.805Z,101453.34
2019-02-19T20:16:57.597Z,101451.53
2019-02-19T20:19:27.061Z,101452.55
2019-02-19T20:21:56.615Z,101455.27
2019-02-19T20:24:26.192Z,101452.00
2019-02-19T20:26:58.049Z,101455.74
2019-02-19T20:29:27.693Z,101453.22
2019-02-19T20:31:57.317Z,101457.44
2019-02-19T20:34:26.856Z,101455.67
2019-02-19T20:36:56.364Z,101460.48
2019-02-19T20:39:25.844Z,101458.19
2019-02-19T20:41:55.376Z,101458.30
2019-02-19T20:44:24.983Z,101462.59
2019-02-19T20:46:54.496Z,101466.79
2019-02-19T20:49:24.135Z,101465.59
2019-02-19T20:51:53.640Z,101468.36
2019-02-19T20:54:23.208Z,101472.17
2019-02-19T20:56:52.701Z,101469.43
2019-02-19T20:59:22.341Z,101472.70
2019-02-19T21:01:51.903Z,101479.04
2019-02-19T21:04:21.473Z,101475.56
2019-02-19T21:06:50.976Z,101479.02
2019-02-19T21:09:20.613Z,101482.61
2019-02-19T21:11:50.199Z,101483.09
2019-02-19T21:14:19.724Z,101483.06
2019-02-19T21:16:49.275Z,101483.33
2019-02-19T21:19:18.902Z,101483.09
2019-02-19T21:21:48.453Z,101481.41
2019-02-19T21:24:21.292Z,101484.67
2019-02-19T21:26:50.790Z,101482.88
2019-02-19T21:29:20.248Z,101483.44
2019-02-19T21:31:49.846Z,101488.03
2019-02-19T21:34:19.309Z,101485.38
2019-02-19T21:36:48.831Z,101479.41
2019-02-19T21:39:18.323Z,101482.92
2019-02-19T21:41:47.796Z,101483.95
2019-02-19T21:44:18.081Z,101479.94
2019-02-19T21:46:47.570Z,101478.47
2019-02-19T21:49:17.094Z,101480.26
2019-02-19T21:51:53.947Z,101486.84
2019-02-19T21:54:17.937Z,101479.66
2019-02-19T21:56:47.474Z,101486.16
2019-02-19T21:59:17.013Z,101492.71
2019-02-19T22:01:46.876Z,101486.12
2019-02-19T22:04:16.478Z,101484.94
2019-02-19T22:06:45.963Z,101490.03
2019-02-19T22:09:15.468Z,101485.84
2019-02-19T22:11:44.969Z,101487.25
2019-02-19T22:14:14.499Z,101490.02
2019-02-19T22:16:44.010Z,101487.89
2019-02-19T22:19:13.493Z,101491.78
2019-02-19T22:21:50.473Z,101482.39
2019-02-19T22:24:21.619Z,101482.51
2019-02-19T22:26:51.113Z,101485.91
2019-02-19T22:29:20.738Z,101487.73
2019-02-19T22:31:50.235Z,101485.67
2019-02-19T22:34:19.860Z,101488.74
2019-02-19T22:36:49.378Z,101484.06
2019-02-19T22:39:18.862Z,101489.56
2019-02-19T22:41:48.447Z,101491.63
2019-02-19T22:44:17.965Z,101485.98
2019-02-19T22:46:47.497Z,101495.12
2019-02-19T22:49:17.048Z,101493.98
2019-02-19T22:51:46.548Z,101485.06
2019-02-19T22:54:26.793Z,101487.54
2019-02-19T22:56:56.315Z,101489.50
2019-02-19T22:59:25.783Z,101491.72
2019-02-19T23:01:59.918Z,101491.50
2019-02-19T23:04:29.464Z,101492.85
2019-02-19T23:06:59.081Z,101499.45
2019-02-19T23:09:28.606Z,101502.95
2019-02-19T23:11:58.087Z,101508.11
2019-02-19T23:14:27.641Z,101505.53
2019-02-19T23:16:57.115Z,101505.19
2019-02-19T23:19:26.622Z,101506.00
2019-02-19T23:21:56.104Z,101505.98
2019-02-19T23:24:25.617Z,101514.20
2019-02-19T23:26:55.201Z,101512.45
2019-02-19T23:29:24.634Z,101508.40
2019-02-19T23:31:54.109Z,101510.25
2019-02-19T23:34:23.594Z,101504.50
2019-02-19T23:36:54.740Z,101508.20
2019-02-19T23:39:24.274Z,101513.92
2019-02-19T23:41:53.763Z,101520.11
2019-02-19T23:44:23.259Z,101518.66
2019-02-19T23:46:52.758Z,101517.91
2019-02-19T23:49:22.275Z,101517.06
2019-02-19T23:51:51.777Z,101523.12
2019-02-19T23:54:21.285Z,101523.52
2019-02-19T23:56:50.759Z,101520.95
2019-02-19T23:59:20.285Z,101525.37
